KBEH/BEH METAR and TAF weather

Enter ICAO airport designator
Station Type Date Time Source
KBEH METAR 2020/09/20 07:53 UTC NOAA

KBEH 200753Z AUTO 14007KT 10SM CLR 08/05 A3038 RMK AO2 SLP290 T00830050


Station Type Date Time Source
KBEH Decoded METAR 2020/09/20 07:53 UTC NOAA

SOUTHWEST MICHIGAN REGIONAL, MI, United States (KBEH) 42-08N 86-25W 191M
Sep 20, 2020 - 03:53 AM EDT / 2020.09.20 0753 UTC
Wind: from the SE (140 degrees) at 8 MPH (7 KT):0
Visibility: 10 mile(s):0
Sky conditions: clear
Temperature: 46.9 F (8.3 C)
Dew Point: 41.0 F (5.0 C)
Relative Humidity: 79%
Pressure (altimeter): 30.38 in. Hg (1028 hPa)
ob: KBEH 200753Z AUTO 14007KT 10SM CLR 08/05 A3038 RMK AO2 SLP290 T00830050
cycle: 8

Station Type Date Time Source
KBEH TAF UTC NOAA

Error!

Example: see airport list